sensor_id;sensor_type;location;lat;lon;timestamp;temperature;humidity
12446;DHT22;6287;50.984;7.022;2024-01-11T00:01:59;-5.50;99.90
12446;DHT22;6287;50.984;7.022;2024-01-11T00:04:28;-5.50;99.90
12446;DHT22;6287;50.984;7.022;2024-01-11T00:06:53;-5.50;99.90
12446;DHT22;6287;50.984;7.022;2024-01-11T00:09:19;-5.50;99.90
12446;DHT22;6287;50.984;7.022;2024-01-11T00:11:46;-5.50;99.90
12446;DHT22;6287;50.984;7.022;2024-01-11T00:14:15;-5.60;99.90
12446;DHT22;6287;50.984;7.022;2024-01-11T00:16:41;-5.50;99.90
12446;DHT22;6287;50.984;7.022;2024-01-11T00:24:01;-5.60;99.90
12446;DHT22;6287;50.984;7.022;2024-01-11T00:26:27;-5.60;99.90
12446;DHT22;6287;50.984;7.022;2024-01-11T00:28:53;-5.60;99.90
12446;DHT22;6287;50.984;7.022;2024-01-11T00:31:21;-5.50;99.90
12446;DHT22;6287;50.984;7.022;2024-01-11T00:33:47;-5.50;99.90
12446;DHT22;6287;50.984;7.022;2024-01-11T00:36:19;-5.60;99.90
12446;DHT22;6287;50.984;7.022;2024-01-11T00:38:46;-5.60;99.90
12446;DHT22;6287;50.984;7.022;2024-01-11T00:43:40;-5.60;99.90
12446;DHT22;6287;50.984;7.022;2024-01-11T00:46:06;-5.60;99.90
12446;DHT22;6287;50.984;7.022;2024-01-11T00:50:58;-5.70;99.90
12446;DHT22;6287;50.984;7.022;2024-01-11T00:53:23;-5.70;99.90
12446;DHT22;6287;50.984;7.022;2024-01-11T00:55:50;-5.70;99.90
12446;DHT22;6287;50.984;7.022;2024-01-11T00:58:18;-5.70;99.90
12446;DHT22;6287;50.984;7.022;2024-01-11T01:00:44;-5.70;99.90
12446;DHT22;6287;50.984;7.022;2024-01-11T01:03:10;-5.70;99.90
12446;DHT22;6287;50.984;7.022;2024-01-11T01:05:35;-5.70;99.90
12446;DHT22;6287;50.984;7.022;2024-01-11T01:08:01;-5.80;99.90
12446;DHT22;6287;50.984;7.022;2024-01-11T01:10:29;-5.80;99.90
12446;DHT22;6287;50.984;7.022;2024-01-11T01:15:23;-5.80;99.90
12446;DHT22;6287;50.984;7.022;2024-01-11T01:17:49;-5.80;99.90
12446;DHT22;6287;50.984;7.022;2024-01-11T01:20:15;-5.80;99.90
12446;DHT22;6287;50.984;7.022;2024-01-11T01:22:42;-5.90;99.90
12446;DHT22;6287;50.984;7.022;2024-01-11T01:25:12;-5.90;99.90
12446;DHT22;6287;50.984;7.022;2024-01-11T01:30:05;-5.90;99.90
12446;DHT22;6287;50.984;7.022;2024-01-11T01:32:32;-5.80;99.90
12446;DHT22;6287;50.984;7.022;2024-01-11T01:34:58;-5.90;99.90
12446;DHT22;6287;50.984;7.022;2024-01-11T01:37:23;-5.90;99.90
12446;DHT22;6287;50.984;7.022;2024-01-11T01:39:51;-5.90;99.90
12446;DHT22;6287;50.984;7.022;2024-01-11T01:42:16;-5.90;99.90
12446;DHT22;6287;50.984;7.022;2024-01-11T01:44:42;-5.90;99.90
12446;DHT22;6287;50.984;7.022;2024-01-11T01:47:09;-5.90;99.90
12446;DHT22;6287;50.984;7.022;2024-01-11T01:49:36;-5.90;99.90
12446;DHT22;6287;50.984;7.022;2024-01-11T01:52:05;-5.90;99.90
12446;DHT22;6287;50.984;7.022;2024-01-11T01:54:32;-6.00;99.90
12446;DHT22;6287;50.984;7.022;2024-01-11T01:57:00;-6.00;99.90
12446;DHT22;6287;50.984;7.022;2024-01-11T01:59:27;-6.10;99.90
12446;DHT22;6287;50.984;7.022;2024-01-11T02:01:54;-6.10;99.90
12446;DHT22;6287;50.984;7.022;2024-01-11T02:06:50;-6.00;99.90
12446;DHT22;6287;50.984;7.022;2024-01-11T02:09:19;-6.10;99.90
12446;DHT22;6287;50.984;7.022;2024-01-11T02:14:15;-6.00;99.90
12446;DHT22;6287;50.984;7.022;2024-01-11T02:16:41;-6.00;99.90
12446;DHT22;6287;50.984;7.022;2024-01-11T02:19:08;-6.00;99.90
12446;DHT22;6287;50.984;7.022;2024-01-11T02:21:37;-6.00;99.90
12446;DHT22;6287;50.984;7.022;2024-01-11T02:24:04;-6.00;99.90
12446;DHT22;6287;50.984;7.022;2024-01-11T02:26:33;-6.00;99.90
12446;DHT22;6287;50.984;7.022;2024-01-11T02:29:00;-6.00;99.90
12446;DHT22;6287;50.984;7.022;2024-01-11T02:31:26;-6.00;99.90
12446;DHT22;6287;50.984;7.022;2024-01-11T02:33:53;-6.10;99.90
12446;DHT22;6287;50.984;7.022;2024-01-11T02:36:20;-6.10;99.90
12446;DHT22;6287;50.984;7.022;2024-01-11T02:38:50;-6.10;99.90
12446;DHT22;6287;50.984;7.022;2024-01-11T02:41:18;-6.10;99.90
12446;DHT22;6287;50.984;7.022;2024-01-11T02:43:50;-6.20;99.90
12446;DHT22;6287;50.984;7.022;2024-01-11T02:46:17;-6.20;99.90
12446;DHT22;6287;50.984;7.022;2024-01-11T02:48:43;-6.20;99.90
12446;DHT22;6287;50.984;7.022;2024-01-11T02:51:11;-6.20;99.90
12446;DHT22;6287;50.984;7.022;2024-01-11T02:53:41;-6.10;99.90
12446;DHT22;6287;50.984;7.022;2024-01-11T02:56:08;-6.10;99.90
12446;DHT22;6287;50.984;7.022;2024-01-11T02:58:36;-6.10;99.90
12446;DHT22;6287;50.984;7.022;2024-01-11T03:01:04;-6.10;99.90
12446;DHT22;6287;50.984;7.022;2024-01-11T03:03:30;-6.00;99.90
12446;DHT22;6287;50.984;7.022;2024-01-11T03:05:55;-6.00;99.90
12446;DHT22;6287;50.984;7.022;2024-01-11T03:08:24;-6.00;99.90
12446;DHT22;6287;50.984;7.022;2024-01-11T03:10:51;-6.10;99.90
12446;DHT22;6287;50.984;7.022;2024-01-11T03:13:17;-6.10;99.90
12446;DHT22;6287;50.984;7.022;2024-01-11T03:15:43;-6.10;99.90
12446;DHT22;6287;50.984;7.022;2024-01-11T03:18:10;-6.00;99.90
12446;DHT22;6287;50.984;7.022;2024-01-11T03:20:37;-6.00;99.90
12446;DHT22;6287;50.984;7.022;2024-01-11T03:23:05;-6.00;99.90
12446;DHT22;6287;50.984;7.022;2024-01-11T03:25:31;-6.00;99.90
12446;DHT22;6287;50.984;7.022;2024-01-11T03:28:00;-6.00;99.90
12446;DHT22;6287;50.984;7.022;2024-01-11T03:30:26;-6.00;99.90
12446;DHT22;6287;50.984;7.022;2024-01-11T03:32:51;-6.10;99.90
12446;DHT22;6287;50.984;7.022;2024-01-11T03:35:18;-6.10;99.90
12446;DHT22;6287;50.984;7.022;2024-01-11T03:37:46;-6.20;99.90
12446;DHT22;6287;50.984;7.022;2024-01-11T03:40:16;-4.90;99.90
12446;DHT22;6287;50.984;7.022;2024-01-11T03:42:42;-6.20;99.90
12446;DHT22;6287;50.984;7.022;2024-01-11T03:45:09;-6.20;99.90
12446;DHT22;6287;50.984;7.022;2024-01-11T03:47:34;-6.20;99.90
12446;DHT22;6287;50.984;7.022;2024-01-11T03:52:27;-6.20;99.90
12446;DHT22;6287;50.984;7.022;2024-01-11T03:54:53;-6.30;99.90
12446;DHT22;6287;50.984;7.022;2024-01-11T03:57:22;-6.30;99.90
12446;DHT22;6287;50.984;7.022;2024-01-11T04:02:20;-6.30;99.90
12446;DHT22;6287;50.984;7.022;2024-01-11T04:04:48;-6.40;99.90
12446;DHT22;6287;50.984;7.022;2024-01-11T04:07:13;-6.40;99.90
12446;DHT22;6287;50.984;7.022;2024-01-11T04:09:39;-6.50;99.90
12446;DHT22;6287;50.984;7.022;2024-01-11T04:12:05;-6.40;99.90
12446;DHT22;6287;50.984;7.022;2024-01-11T04:14:38;-6.40;99.90
12446;DHT22;6287;50.984;7.022;2024-01-11T04:19:32;-6.50;99.90
12446;DHT22;6287;50.984;7.022;2024-01-11T04:24:24;-6.50;99.90
12446;DHT22;6287;50.984;7.022;2024-01-11T04:31:47;-6.60;99.90
12446;DHT22;6287;50.984;7.022;2024-01-11T04:34:13;-6.60;99.90
12446;DHT22;6287;50.984;7.022;2024-01-11T04:39:05;-6.60;99.90
12446;DHT22;6287;50.984;7.022;2024-01-11T04:43:59;-6.60;99.90
12446;DHT22;6287;50.984;7.022;2024-01-11T04:46:28;-6.60;99.90
12446;DHT22;6287;50.984;7.022;2024-01-11T04:48:56;-6.70;99.90
12446;DHT22;6287;50.984;7.022;2024-01-11T04:51:24;-6.70;99.90
12446;DHT22;6287;50.984;7.022;2024-01-11T04:53:52;-6.70;99.90
12446;DHT22;6287;50.984;7.022;2024-01-11T04:56:19;-6.70;99.90
12446;DHT22;6287;50.984;7.022;2024-01-11T04:58:47;-6.80;99.90
12446;DHT22;6287;50.984;7.022;2024-01-11T05:01:15;-6.80;99.90
12446;DHT22;6287;50.984;7.022;2024-01-11T05:03:41;-6.80;99.90
12446;DHT22;6287;50.984;7.022;2024-01-11T05:11:00;-6.80;99.90
12446;DHT22;6287;50.984;7.022;2024-01-11T05:18:21;-6.80;99.90
12446;DHT22;6287;50.984;7.022;2024-01-11T05:20:51;-6.80;99.90
12446;DHT22;6287;50.984;7.022;2024-01-11T05:23:17;-6.80;99.90
12446;DHT22;6287;50.984;7.022;2024-01-11T05:25:45;-6.90;99.90
12446;DHT22;6287;50.984;7.022;2024-01-11T05:28:13;-6.90;99.90
12446;DHT22;6287;50.984;7.022;2024-01-11T05:30:39;-6.90;99.90
12446;DHT22;6287;50.984;7.022;2024-01-11T05:33:04;-6.90;99.90
12446;DHT22;6287;50.984;7.022;2024-01-11T05:35:30;-6.90;99.90
12446;DHT22;6287;50.984;7.022;2024-01-11T05:37:58;-6.90;99.90
12446;DHT22;6287;50.984;7.022;2024-01-11T05:45:16;-6.90;99.90
12446;DHT22;6287;50.984;7.022;2024-01-11T05:47:46;-6.90;99.90
12446;DHT22;6287;50.984;7.022;2024-01-11T05:50:12;-6.90;99.90
12446;DHT22;6287;50.984;7.022;2024-01-11T05:52:38;-6.90;99.90
12446;DHT22;6287;50.984;7.022;2024-01-11T05:55:03;-7.00;99.90
12446;DHT22;6287;50.984;7.022;2024-01-11T05:57:30;-7.00;99.90
12446;DHT22;6287;50.984;7.022;2024-01-11T06:00:03;-7.00;99.90
12446;DHT22;6287;50.984;7.022;2024-01-11T06:02:31;-7.00;99.90
12446;DHT22;6287;50.984;7.022;2024-01-11T06:04:57;-7.00;99.90
12446;DHT22;6287;50.984;7.022;2024-01-11T06:07:22;-7.00;99.90
12446;DHT22;6287;50.984;7.022;2024-01-11T06:09:49;-7.10;99.90
12446;DHT22;6287;50.984;7.022;2024-01-11T06:12:16;-7.00;99.90
12446;DHT22;6287;50.984;7.022;2024-01-11T06:14:45;-7.10;99.90
12446;DHT22;6287;50.984;7.022;2024-01-11T06:17:11;-7.10;99.90
12446;DHT22;6287;50.984;7.022;2024-01-11T06:19:39;-7.10;99.90
12446;DHT22;6287;50.984;7.022;2024-01-11T06:22:08;-7.10;99.90
12446;DHT22;6287;50.984;7.022;2024-01-11T06:24:33;-7.00;99.90
12446;DHT22;6287;50.984;7.022;2024-01-11T06:26:59;-7.10;99.90
12446;DHT22;6287;50.984;7.022;2024-01-11T06:29:29;-7.10;99.90
12446;DHT22;6287;50.984;7.022;2024-01-11T06:31:55;-7.10;99.90
12446;DHT22;6287;50.984;7.022;2024-01-11T06:34:20;-7.10;99.90
12446;DHT22;6287;50.984;7.022;2024-01-11T06:36:46;-7.20;99.90
12446;DHT22;6287;50.984;7.022;2024-01-11T06:39:14;-7.20;99.90
12446;DHT22;6287;50.984;7.022;2024-01-11T06:41:39;-7.20;99.90
12446;DHT22;6287;50.984;7.022;2024-01-11T06:44:05;-7.20;99.90
12446;DHT22;6287;50.984;7.022;2024-01-11T06:46:31;-7.10;99.90
12446;DHT22;6287;50.984;7.022;2024-01-11T06:48:59;-7.10;99.90
12446;DHT22;6287;50.984;7.022;2024-01-11T06:51:27;-7.10;99.90
12446;DHT22;6287;50.984;7.022;2024-01-11T06:53:57;-7.10;99.90
12446;DHT22;6287;50.984;7.022;2024-01-11T06:56:25;-7.10;99.90
12446;DHT22;6287;50.984;7.022;2024-01-11T06:58:51;-7.10;99.90
12446;DHT22;6287;50.984;7.022;2024-01-11T07:01:17;-7.10;99.90
12446;DHT22;6287;50.984;7.022;2024-01-11T07:03:43;-7.10;99.90
12446;DHT22;6287;50.984;7.022;2024-01-11T07:06:08;-7.20;99.90
12446;DHT22;6287;50.984;7.022;2024-01-11T07:11:05;-7.20;99.90
12446;DHT22;6287;50.984;7.022;2024-01-11T07:13:33;-7.20;99.90
12446;DHT22;6287;50.984;7.022;2024-01-11T07:16:01;-7.20;99.90
12446;DHT22;6287;50.984;7.022;2024-01-11T07:18:28;-7.20;99.90
12446;DHT22;6287;50.984;7.022;2024-01-11T07:20:56;-7.20;99.90
12446;DHT22;6287;50.984;7.022;2024-01-11T07:23:25;-7.10;99.90
12446;DHT22;6287;50.984;7.022;2024-01-11T07:25:51;-7.10;99.90
12446;DHT22;6287;50.984;7.022;2024-01-11T07:28:19;-7.00;99.90
12446;DHT22;6287;50.984;7.022;2024-01-11T07:30:50;-7.00;99.90
12446;DHT22;6287;50.984;7.022;2024-01-11T07:35:43;-7.00;99.90
12446;DHT22;6287;50.984;7.022;2024-01-11T07:38:11;-6.90;99.90
12446;DHT22;6287;50.984;7.022;2024-01-11T07:40:36;-6.90;99.90
12446;DHT22;6287;50.984;7.022;2024-01-11T07:43:02;-6.90;99.90
12446;DHT22;6287;50.984;7.022;2024-01-11T07:45:30;-6.90;99.90
12446;DHT22;6287;50.984;7.022;2024-01-11T07:47:55;-6.90;99.90
12446;DHT22;6287;50.984;7.022;2024-01-11T07:50:21;-6.90;99.90
12446;DHT22;6287;50.984;7.022;2024-01-11T07:52:49;-6.90;99.90
12446;DHT22;6287;50.984;7.022;2024-01-11T07:55:16;-6.90;99.90
12446;DHT22;6287;50.984;7.022;2024-01-11T07:57:42;-6.10;99.90
12446;DHT22;6287;50.984;7.022;2024-01-11T08:00:10;-7.00;99.90
12446;DHT22;6287;50.984;7.022;2024-01-11T08:02:38;-7.00;99.90
12446;DHT22;6287;50.984;7.022;2024-01-11T08:05:06;-7.00;99.90
12446;DHT22;6287;50.984;7.022;2024-01-11T08:07:32;-7.00;99.90
12446;DHT22;6287;50.984;7.022;2024-01-11T08:10:00;-7.00;99.90
12446;DHT22;6287;50.984;7.022;2024-01-11T08:12:29;-6.90;99.90
12446;DHT22;6287;50.984;7.022;2024-01-11T08:14:55;-6.90;99.90
12446;DHT22;6287;50.984;7.022;2024-01-11T08:17:23;-6.90;99.90
12446;DHT22;6287;50.984;7.022;2024-01-11T08:29:45;-6.40;99.90
12446;DHT22;6287;50.984;7.022;2024-01-11T08:32:12;-6.10;99.90
12446;DHT22;6287;50.984;7.022;2024-01-11T08:34:37;-6.10;99.90
12446;DHT22;6287;50.984;7.022;2024-01-11T08:37:05;-6.00;99.90
12446;DHT22;6287;50.984;7.022;2024-01-11T08:44:27;-5.60;99.90
12446;DHT22;6287;50.984;7.022;2024-01-11T08:46:56;-5.50;99.90
12446;DHT22;6287;50.984;7.022;2024-01-11T08:49:22;-5.40;99.90
12446;DHT22;6287;50.984;7.022;2024-01-11T08:51:48;-5.30;99.90
12446;DHT22;6287;50.984;7.022;2024-01-11T08:56:42;-4.90;99.90
12446;DHT22;6287;50.984;7.022;2024-01-11T08:59:08;-4.90;99.90
12446;DHT22;6287;50.984;7.022;2024-01-11T09:01:36;-4.60;99.90
12446;DHT22;6287;50.984;7.022;2024-01-11T09:04:05;-4.60;99.90
12446;DHT22;6287;50.984;7.022;2024-01-11T09:06:31;-4.60;99.90
12446;DHT22;6287;50.984;7.022;2024-01-11T09:09:03;-4.50;99.90
12446;DHT22;6287;50.984;7.022;2024-01-11T09:11:37;-4.40;99.90
12446;DHT22;6287;50.984;7.022;2024-01-11T09:14:05;-4.40;99.90
12446;DHT22;6287;50.984;7.022;2024-01-11T09:16:36;-4.40;99.90
12446;DHT22;6287;50.984;7.022;2024-01-11T09:19:02;-4.40;99.90
12446;DHT22;6287;50.984;7.022;2024-01-11T09:21:30;-4.40;99.90
12446;DHT22;6287;50.984;7.022;2024-01-11T09:26:33;-4.30;99.90
12446;DHT22;6287;50.984;7.022;2024-01-11T09:34:12;-4.20;99.90
12446;DHT22;6287;50.984;7.022;2024-01-11T09:36:40;-4.30;99.90
12446;DHT22;6287;50.984;7.022;2024-01-11T09:39:06;-4.10;99.90
12446;DHT22;6287;50.984;7.022;2024-01-11T09:41:41;-4.10;99.90
12446;DHT22;6287;50.984;7.022;2024-01-11T09:44:07;-4.00;99.90
12446;DHT22;6287;50.984;7.022;2024-01-11T09:46:33;-3.90;99.90
12446;DHT22;6287;50.984;7.022;2024-01-11T09:49:02;-3.80;99.90
12446;DHT22;6287;50.984;7.022;2024-01-11T09:51:31;-3.80;99.90
12446;DHT22;6287;50.984;7.022;2024-01-11T09:54:03;-3.70;99.90
12446;DHT22;6287;50.984;7.022;2024-01-11T09:56:28;-3.70;99.90
12446;DHT22;6287;50.984;7.022;2024-01-11T09:58:56;-3.60;99.90
12446;DHT22;6287;50.984;7.022;2024-01-11T10:01:25;-3.50;99.90
12446;DHT22;6287;50.984;7.022;2024-01-11T10:03:52;-3.30;99.90
12446;DHT22;6287;50.984;7.022;2024-01-11T10:06:24;-3.30;99.90
12446;DHT22;6287;50.984;7.022;2024-01-11T10:08:51;-3.20;99.90
12446;DHT22;6287;50.984;7.022;2024-01-11T10:11:17;-3.00;99.90
12446;DHT22;6287;50.984;7.022;2024-01-11T10:13:46;-2.90;99.90
12446;DHT22;6287;50.984;7.022;2024-01-11T10:16:17;-2.70;99.90
12446;DHT22;6287;50.984;7.022;2024-01-11T10:18:43;-2.50;99.90
12446;DHT22;6287;50.984;7.022;2024-01-11T10:21:11;-2.40;99.90
12446;DHT22;6287;50.984;7.022;2024-01-11T10:23:39;-2.10;99.90
12446;DHT22;6287;50.984;7.022;2024-01-11T10:26:05;-1.90;99.90
12446;DHT22;6287;50.984;7.022;2024-01-11T10:28:32;-1.70;99.90
12446;DHT22;6287;50.984;7.022;2024-01-11T10:31:05;-1.50;99.90
12446;DHT22;6287;50.984;7.022;2024-01-11T10:33:37;-1.40;99.90
12446;DHT22;6287;50.984;7.022;2024-01-11T10:36:05;-1.20;99.90
12446;DHT22;6287;50.984;7.022;2024-01-11T10:38:36;-1.20;99.90
12446;DHT22;6287;50.984;7.022;2024-01-11T10:41:05;-1.00;99.90
12446;DHT22;6287;50.984;7.022;2024-01-11T10:43:32;-0.90;99.90
12446;DHT22;6287;50.984;7.022;2024-01-11T10:46:04;-0.90;99.90
12446;DHT22;6287;50.984;7.022;2024-01-11T10:48:37;-0.70;99.90
12446;DHT22;6287;50.984;7.022;2024-01-11T10:51:07;-0.60;99.90
12446;DHT22;6287;50.984;7.022;2024-01-11T10:53:46;-0.40;99.90
12446;DHT22;6287;50.984;7.022;2024-01-11T10:56:14;-0.10;99.90
12446;DHT22;6287;50.984;7.022;2024-01-11T10:58:42;0.00;99.90
12446;DHT22;6287;50.984;7.022;2024-01-11T11:01:13;0.20;99.90
12446;DHT22;6287;50.984;7.022;2024-01-11T11:03:44;0.30;99.90
12446;DHT22;6287;50.984;7.022;2024-01-11T11:06:18;0.40;99.90
12446;DHT22;6287;50.984;7.022;2024-01-11T11:08:45;0.40;99.90
12446;DHT22;6287;50.984;7.022;2024-01-11T11:11:15;0.60;99.90
12446;DHT22;6287;50.984;7.022;2024-01-11T11:13:47;0.70;99.90
12446;DHT22;6287;50.984;7.022;2024-01-11T11:16:15;1.20;99.90
12446;DHT22;6287;50.984;7.022;2024-01-11T11:18:43;0.80;99.90
12446;DHT22;6287;50.984;7.022;2024-01-11T11:21:14;0.80;99.90
12446;DHT22;6287;50.984;7.022;2024-01-11T11:23:42;0.80;99.90
12446;DHT22;6287;50.984;7.022;2024-01-11T11:26:14;0.90;99.90
12446;DHT22;6287;50.984;7.022;2024-01-11T11:28:41;1.00;99.90
12446;DHT22;6287;50.984;7.022;2024-01-11T11:31:07;1.10;99.90
12446;DHT22;6287;50.984;7.022;2024-01-11T11:33:37;1.30;99.90
12446;DHT22;6287;50.984;7.022;2024-01-11T11:36:05;1.30;99.90
12446;DHT22;6287;50.984;7.022;2024-01-11T11:38:37;1.50;99.90
12446;DHT22;6287;50.984;7.022;2024-01-11T11:41:03;1.60;99.90
12446;DHT22;6287;50.984;7.022;2024-01-11T11:43:31;1.80;99.90
12446;DHT22;6287;50.984;7.022;2024-01-11T11:45:57;1.90;99.90
12446;DHT22;6287;50.984;7.022;2024-01-11T11:53:39;2.50;99.90
12446;DHT22;6287;50.984;7.022;2024-01-11T11:56:09;2.70;99.90
12446;DHT22;6287;50.984;7.022;2024-01-11T11:58:38;2.90;99.90
12446;DHT22;6287;50.984;7.022;2024-01-11T12:01:06;3.00;99.90
12446;DHT22;6287;50.984;7.022;2024-01-11T12:03:36;3.20;99.90
12446;DHT22;6287;50.984;7.022;2024-01-11T12:06:06;3.40;99.90
12446;DHT22;6287;50.984;7.022;2024-01-11T12:08:35;3.60;99.90
12446;DHT22;6287;50.984;7.022;2024-01-11T12:11:01;3.70;99.90
12446;DHT22;6287;50.984;7.022;2024-01-11T12:13:31;3.90;99.90
12446;DHT22;6287;50.984;7.022;2024-01-11T12:15:59;4.00;99.90
12446;DHT22;6287;50.984;7.022;2024-01-11T12:18:25;4.20;99.90
12446;DHT22;6287;50.984;7.022;2024-01-11T12:20:55;4.20;99.90
12446;DHT22;6287;50.984;7.022;2024-01-11T12:23:21;4.30;99.90
12446;DHT22;6287;50.984;7.022;2024-01-11T12:25:47;4.30;99.90
12446;DHT22;6287;50.984;7.022;2024-01-11T12:28:15;4.40;99.90
12446;DHT22;6287;50.984;7.022;2024-01-11T12:30:45;4.30;99.90
12446;DHT22;6287;50.984;7.022;2024-01-11T12:33:11;4.30;99.90
12446;DHT22;6287;50.984;7.022;2024-01-11T12:35:37;4.40;99.90
12446;DHT22;6287;50.984;7.022;2024-01-11T12:38:06;4.30;99.90
12446;DHT22;6287;50.984;7.022;2024-01-11T12:40:32;4.30;99.90
12446;DHT22;6287;50.984;7.022;2024-01-11T12:43:00;4.30;99.90
12446;DHT22;6287;50.984;7.022;2024-01-11T12:45:25;4.10;99.90
12446;DHT22;6287;50.984;7.022;2024-01-11T12:47:52;4.10;99.90
12446;DHT22;6287;50.984;7.022;2024-01-11T12:50:17;4.10;99.90
12446;DHT22;6287;50.984;7.022;2024-01-11T12:52:46;3.90;99.90
12446;DHT22;6287;50.984;7.022;2024-01-11T12:55:18;3.90;99.90
12446;DHT22;6287;50.984;7.022;2024-01-11T12:57:47;3.90;99.90
12446;DHT22;6287;50.984;7.022;2024-01-11T13:00:16;3.90;99.90
12446;DHT22;6287;50.984;7.022;2024-01-11T13:02:43;3.70;99.90
12446;DHT22;6287;50.984;7.022;2024-01-11T13:05:14;3.40;99.90
12446;DHT22;6287;50.984;7.022;2024-01-11T13:07:43;3.30;99.90
12446;DHT22;6287;50.984;7.022;2024-01-11T13:10:11;3.10;99.90
12446;DHT22;6287;50.984;7.022;2024-01-11T13:12:37;3.00;99.90
12446;DHT22;6287;50.984;7.022;2024-01-11T13:15:05;2.90;99.90
12446;DHT22;6287;50.984;7.022;2024-01-11T13:17:31;2.80;99.90
12446;DHT22;6287;50.984;7.022;2024-01-11T13:19:56;7.10;99.90
12446;DHT22;6287;50.984;7.022;2024-01-11T13:22:27;2.80;99.90
12446;DHT22;6287;50.984;7.022;2024-01-11T13:24:53;2.90;99.90
12446;DHT22;6287;50.984;7.022;2024-01-11T13:27:18;3.20;99.90
12446;DHT22;6287;50.984;7.022;2024-01-11T13:29:44;3.50;99.90
12446;DHT22;6287;50.984;7.022;2024-01-11T13:32:10;3.90;99.90
12446;DHT22;6287;50.984;7.022;2024-01-11T13:34:39;4.20;99.90
12446;DHT22;6287;50.984;7.022;2024-01-11T13:39:31;4.60;99.90
12446;DHT22;6287;50.984;7.022;2024-01-11T13:41:59;4.50;99.90
12446;DHT22;6287;50.984;7.022;2024-01-11T13:44:28;4.30;99.90
12446;DHT22;6287;50.984;7.022;2024-01-11T13:46:54;4.00;99.90
12446;DHT22;6287;50.984;7.022;2024-01-11T13:49:20;3.70;99.90
12446;DHT22;6287;50.984;7.022;2024-01-11T13:51:54;3.40;99.90
12446;DHT22;6287;50.984;7.022;2024-01-11T13:54:20;3.20;99.90
12446;DHT22;6287;50.984;7.022;2024-01-11T13:56:50;3.20;99.90
12446;DHT22;6287;50.984;7.022;2024-01-11T13:59:22;3.10;99.90
12446;DHT22;6287;50.984;7.022;2024-01-11T14:01:51;3.00;99.90
12446;DHT22;6287;50.984;7.022;2024-01-11T14:04:19;2.90;99.90
12446;DHT22;6287;50.984;7.022;2024-01-11T14:06:48;2.80;99.90
12446;DHT22;6287;50.984;7.022;2024-01-11T14:09:17;2.60;99.90
12446;DHT22;6287;50.984;7.022;2024-01-11T14:11:44;2.50;99.90
12446;DHT22;6287;50.984;7.022;2024-01-11T14:14:14;2.30;99.90
12446;DHT22;6287;50.984;7.022;2024-01-11T14:16:39;2.20;99.90
12446;DHT22;6287;50.984;7.022;2024-01-11T14:19:05;2.10;99.90
12446;DHT22;6287;50.984;7.022;2024-01-11T14:21:33;2.00;99.90
12446;DHT22;6287;50.984;7.022;2024-01-11T14:24:01;1.90;99.90
12446;DHT22;6287;50.984;7.022;2024-01-11T14:26:29;1.90;99.90
12446;DHT22;6287;50.984;7.022;2024-01-11T14:28:54;1.80;99.90
12446;DHT22;6287;50.984;7.022;2024-01-11T14:31:22;1.80;99.90
12446;DHT22;6287;50.984;7.022;2024-01-11T14:33:48;1.70;99.90
12446;DHT22;6287;50.984;7.022;2024-01-11T14:36:13;1.70;99.90
12446;DHT22;6287;50.984;7.022;2024-01-11T14:41:06;1.60;99.90
12446;DHT22;6287;50.984;7.022;2024-01-11T14:43:33;1.60;99.90
12446;DHT22;6287;50.984;7.022;2024-01-11T14:46:02;1.70;99.90
12446;DHT22;6287;50.984;7.022;2024-01-11T14:48:30;1.60;99.90
12446;DHT22;6287;50.984;7.022;2024-01-11T14:51:01;1.60;99.90
12446;DHT22;6287;50.984;7.022;2024-01-11T14:53:29;1.60;99.90
12446;DHT22;6287;50.984;7.022;2024-01-11T14:55:58;1.60;99.90
12446;DHT22;6287;50.984;7.022;2024-01-11T14:58:23;1.60;99.90
12446;DHT22;6287;50.984;7.022;2024-01-11T15:00:54;1.60;99.90
12446;DHT22;6287;50.984;7.022;2024-01-11T15:03:24;1.50;99.90
12446;DHT22;6287;50.984;7.022;2024-01-11T15:05:57;1.50;99.90
12446;DHT22;6287;50.984;7.022;2024-01-11T15:08:25;1.50;99.90
12446;DHT22;6287;50.984;7.022;2024-01-11T15:10:51;1.40;99.90
12446;DHT22;6287;50.984;7.022;2024-01-11T15:13:17;1.40;99.90
12446;DHT22;6287;50.984;7.022;2024-01-11T15:15:42;1.40;99.90
12446;DHT22;6287;50.984;7.022;2024-01-11T15:20:36;1.30;99.90
12446;DHT22;6287;50.984;7.022;2024-01-11T15:23:04;1.30;99.90
12446;DHT22;6287;50.984;7.022;2024-01-11T15:25:30;1.30;99.90
12446;DHT22;6287;50.984;7.022;2024-01-11T15:27:56;1.30;99.90
12446;DHT22;6287;50.984;7.022;2024-01-11T15:30:24;1.20;99.90
12446;DHT22;6287;50.984;7.022;2024-01-11T15:32:50;1.10;99.90
12446;DHT22;6287;50.984;7.022;2024-01-11T15:35:18;1.10;99.90
12446;DHT22;6287;50.984;7.022;2024-01-11T15:37:48;1.00;99.90
12446;DHT22;6287;50.984;7.022;2024-01-11T15:40:15;1.00;99.90
12446;DHT22;6287;50.984;7.022;2024-01-11T15:42:44;0.90;99.90
12446;DHT22;6287;50.984;7.022;2024-01-11T15:45:12;0.90;99.90
12446;DHT22;6287;50.984;7.022;2024-01-11T15:47:42;0.80;99.90
12446;DHT22;6287;50.984;7.022;2024-01-11T15:50:08;0.80;99.90
12446;DHT22;6287;50.984;7.022;2024-01-11T15:52:38;0.70;99.90
12446;DHT22;6287;50.984;7.022;2024-01-11T15:55:05;0.70;99.90
12446;DHT22;6287;50.984;7.022;2024-01-11T15:57:34;0.60;99.90
12446;DHT22;6287;50.984;7.022;2024-01-11T16:00:01;0.60;99.90
12446;DHT22;6287;50.984;7.022;2024-01-11T16:02:28;0.40;99.90
12446;DHT22;6287;50.984;7.022;2024-01-11T16:04:56;0.40;99.90
12446;DHT22;6287;50.984;7.022;2024-01-11T16:07:21;0.40;99.90
12446;DHT22;6287;50.984;7.022;2024-01-11T16:09:49;0.30;99.90
12446;DHT22;6287;50.984;7.022;2024-01-11T16:12:15;0.30;99.90
12446;DHT22;6287;50.984;7.022;2024-01-11T16:14:46;0.20;99.90
12446;DHT22;6287;50.984;7.022;2024-01-11T16:19:38;0.10;99.90
12446;DHT22;6287;50.984;7.022;2024-01-11T16:22:03;0.10;99.90
12446;DHT22;6287;50.984;7.022;2024-01-11T16:24:32;0.10;99.90
12446;DHT22;6287;50.984;7.022;2024-01-11T16:26:57;0.00;99.90
12446;DHT22;6287;50.984;7.022;2024-01-11T16:29:26;0.00;99.90
12446;DHT22;6287;50.984;7.022;2024-01-11T16:31:52;-0.10;99.90
12446;DHT22;6287;50.984;7.022;2024-01-11T16:34:20;-0.10;99.90
12446;DHT22;6287;50.984;7.022;2024-01-11T16:36:47;-0.10;99.90
12446;DHT22;6287;50.984;7.022;2024-01-11T16:39:15;-0.10;99.90
12446;DHT22;6287;50.984;7.022;2024-01-11T16:41:43;-0.20;99.90
12446;DHT22;6287;50.984;7.022;2024-01-11T16:44:13;-0.20;99.90
12446;DHT22;6287;50.984;7.022;2024-01-11T16:46:41;-0.20;99.90
12446;DHT22;6287;50.984;7.022;2024-01-11T16:49:08;-0.20;99.90
12446;DHT22;6287;50.984;7.022;2024-01-11T16:51:44;-0.30;99.90
12446;DHT22;6287;50.984;7.022;2024-01-11T16:56:35;-0.30;99.90
12446;DHT22;6287;50.984;7.022;2024-01-11T16:59:05;-0.40;99.90
12446;DHT22;6287;50.984;7.022;2024-01-11T17:01:33;-0.40;99.90
12446;DHT22;6287;50.984;7.022;2024-01-11T17:04:01;-0.50;99.90
12446;DHT22;6287;50.984;7.022;2024-01-11T17:06:29;-0.50;99.90
12446;DHT22;6287;50.984;7.022;2024-01-11T17:08:59;-0.50;99.90
12446;DHT22;6287;50.984;7.022;2024-01-11T17:11:28;-0.50;99.90
12446;DHT22;6287;50.984;7.022;2024-01-11T17:13:54;-0.50;99.90
12446;DHT22;6287;50.984;7.022;2024-01-11T17:16:23;-0.60;99.90
12446;DHT22;6287;50.984;7.022;2024-01-11T17:18:49;-0.60;99.90
12446;DHT22;6287;50.984;7.022;2024-01-11T17:21:15;-0.60;99.90
12446;DHT22;6287;50.984;7.022;2024-01-11T17:23:43;-0.60;99.90
12446;DHT22;6287;50.984;7.022;2024-01-11T17:26:08;-0.70;99.90
12446;DHT22;6287;50.984;7.022;2024-01-11T17:28:34;-0.70;99.90
12446;DHT22;6287;50.984;7.022;2024-01-11T17:30:59;-0.70;99.90
12446;DHT22;6287;50.984;7.022;2024-01-11T17:33:28;-0.80;99.90
12446;DHT22;6287;50.984;7.022;2024-01-11T17:35:54;-0.80;99.90